sensor_id;sensor_type;location;lat;lon;timestamp;temperature;humidity
43995;DHT22;51687;52.160;5.298;2023-12-20T00:02:11;11.30;69.50
43995;DHT22;51687;52.160;5.298;2023-12-20T00:04:38;11.20;69.50
43995;DHT22;51687;52.160;5.298;2023-12-20T00:07:04;11.30;69.60
43995;DHT22;51687;52.160;5.298;2023-12-20T00:09:31;11.20;69.40
43995;DHT22;51687;52.160;5.298;2023-12-20T00:11:58;11.20;69.60
43995;DHT22;51687;52.160;5.298;2023-12-20T00:14:25;11.20;69.50
43995;DHT22;51687;52.160;5.298;2023-12-20T00:16:51;11.20;69.40
43995;DHT22;51687;52.160;5.298;2023-12-20T00:19:18;11.20;69.30
43995;DHT22;51687;52.160;5.298;2023-12-20T00:21:45;11.20;69.30
43995;DHT22;51687;52.160;5.298;2023-12-20T00:24:12;11.10;69.30
43995;DHT22;51687;52.160;5.298;2023-12-20T00:26:39;11.20;69.10
43995;DHT22;51687;52.160;5.298;2023-12-20T00:29:05;11.20;69.10
43995;DHT22;51687;52.160;5.298;2023-12-20T00:31:32;11.10;68.90
43995;DHT22;51687;52.160;5.298;2023-12-20T00:33:59;11.20;69.10
43995;DHT22;51687;52.160;5.298;2023-12-20T00:36:26;11.20;69.00
43995;DHT22;51687;52.160;5.298;2023-12-20T00:38:52;11.20;68.70
43995;DHT22;51687;52.160;5.298;2023-12-20T00:41:19;11.10;68.70
43995;DHT22;51687;52.160;5.298;2023-12-20T00:46:13;11.10;68.70
43995;DHT22;51687;52.160;5.298;2023-12-20T00:48:40;11.00;68.90
43995;DHT22;51687;52.160;5.298;2023-12-20T00:51:08;10.90;68.90
43995;DHT22;51687;52.160;5.298;2023-12-20T00:53:35;10.90;69.00
43995;DHT22;51687;52.160;5.298;2023-12-20T00:56:02;10.80;69.10
43995;DHT22;51687;52.160;5.298;2023-12-20T00:58:29;10.80;69.20
43995;DHT22;51687;52.160;5.298;2023-12-20T01:00:56;10.90;69.30
43995;DHT22;51687;52.160;5.298;2023-12-20T01:03:24;10.90;69.10
43995;DHT22;51687;52.160;5.298;2023-12-20T01:05:51;10.80;69.10
43995;DHT22;51687;52.160;5.298;2023-12-20T01:08:18;10.80;69.40
43995;DHT22;51687;52.160;5.298;2023-12-20T01:10:45;10.80;69.40
43995;DHT22;51687;52.160;5.298;2023-12-20T01:13:13;10.90;69.30
43995;DHT22;51687;52.160;5.298;2023-12-20T01:15:40;10.90;69.20
43995;DHT22;51687;52.160;5.298;2023-12-20T01:18:07;10.90;69.10
43995;DHT22;51687;52.160;5.298;2023-12-20T01:20:34;10.90;69.00
43995;DHT22;51687;52.160;5.298;2023-12-20T01:23:00;10.90;69.00
43995;DHT22;51687;52.160;5.298;2023-12-20T01:25:27;10.90;69.10
43995;DHT22;51687;52.160;5.298;2023-12-20T01:27:54;10.90;69.00
43995;DHT22;51687;52.160;5.298;2023-12-20T01:30:21;10.80;69.30
43995;DHT22;51687;52.160;5.298;2023-12-20T01:32:47;10.80;69.60
43995;DHT22;51687;52.160;5.298;2023-12-20T01:35:15;10.70;69.90
43995;DHT22;51687;52.160;5.298;2023-12-20T01:37:42;10.70;70.00
43995;DHT22;51687;52.160;5.298;2023-12-20T01:40:10;10.70;70.00
43995;DHT22;51687;52.160;5.298;2023-12-20T01:42:37;10.70;70.00
43995;DHT22;51687;52.160;5.298;2023-12-20T01:45:04;10.70;70.10
43995;DHT22;51687;52.160;5.298;2023-12-20T01:47:31;10.70;70.10
43995;DHT22;51687;52.160;5.298;2023-12-20T01:49:58;10.70;70.10
43995;DHT22;51687;52.160;5.298;2023-12-20T01:52:26;10.80;70.10
43995;DHT22;51687;52.160;5.298;2023-12-20T01:54:53;10.80;70.10
43995;DHT22;51687;52.160;5.298;2023-12-20T01:57:27;10.90;70.00
43995;DHT22;51687;52.160;5.298;2023-12-20T01:59:54;10.80;69.80
43995;DHT22;51687;52.160;5.298;2023-12-20T02:02:21;10.80;69.90
43995;DHT22;51687;52.160;5.298;2023-12-20T02:04:48;10.80;69.90
43995;DHT22;51687;52.160;5.298;2023-12-20T02:07:18;10.80;69.80
43995;DHT22;51687;52.160;5.298;2023-12-20T02:09:46;10.80;69.80
43995;DHT22;51687;52.160;5.298;2023-12-20T02:12:13;10.80;70.10
43995;DHT22;51687;52.160;5.298;2023-12-20T02:14:40;10.70;70.40
43995;DHT22;51687;52.160;5.298;2023-12-20T02:17:06;10.80;70.40
43995;DHT22;51687;52.160;5.298;2023-12-20T02:19:33;10.80;70.50
43995;DHT22;51687;52.160;5.298;2023-12-20T02:22:10;10.70;70.50
43995;DHT22;51687;52.160;5.298;2023-12-20T02:24:38;10.70;70.60
43995;DHT22;51687;52.160;5.298;2023-12-20T02:27:08;10.70;70.80
43995;DHT22;51687;52.160;5.298;2023-12-20T02:29:35;10.60;70.90
43995;DHT22;51687;52.160;5.298;2023-12-20T02:32:02;10.60;71.00
43995;DHT22;51687;52.160;5.298;2023-12-20T02:39:24;10.60;71.00
43995;DHT22;51687;52.160;5.298;2023-12-20T02:41:50;10.50;71.50
43995;DHT22;51687;52.160;5.298;2023-12-20T02:46:44;10.50;71.70
43995;DHT22;51687;52.160;5.298;2023-12-20T02:49:11;10.70;71.60
43995;DHT22;51687;52.160;5.298;2023-12-20T02:51:38;10.70;71.40
43995;DHT22;51687;52.160;5.298;2023-12-20T02:54:05;10.70;71.50
43995;DHT22;51687;52.160;5.298;2023-12-20T02:56:33;10.70;71.40
43995;DHT22;51687;52.160;5.298;2023-12-20T02:58:59;10.70;71.30
43995;DHT22;51687;52.160;5.298;2023-12-20T03:01:27;10.70;71.40
43995;DHT22;51687;52.160;5.298;2023-12-20T03:03:54;10.70;71.40
43995;DHT22;51687;52.160;5.298;2023-12-20T03:06:21;10.60;71.40
43995;DHT22;51687;52.160;5.298;2023-12-20T03:08:48;10.60;71.60
43995;DHT22;51687;52.160;5.298;2023-12-20T03:11:15;10.60;71.70
43995;DHT22;51687;52.160;5.298;2023-12-20T03:13:41;10.60;71.80
43995;DHT22;51687;52.160;5.298;2023-12-20T03:16:12;10.60;72.00
43995;DHT22;51687;52.160;5.298;2023-12-20T03:18:39;10.70;72.50
43995;DHT22;51687;52.160;5.298;2023-12-20T03:21:06;10.80;72.20
43995;DHT22;51687;52.160;5.298;2023-12-20T03:23:33;10.80;71.70
43995;DHT22;51687;52.160;5.298;2023-12-20T03:26:01;10.80;71.30
43995;DHT22;51687;52.160;5.298;2023-12-20T03:28:28;10.80;71.30
43995;DHT22;51687;52.160;5.298;2023-12-20T03:30:55;10.90;71.00
43995;DHT22;51687;52.160;5.298;2023-12-20T03:33:22;10.90;71.00
43995;DHT22;51687;52.160;5.298;2023-12-20T03:35:48;10.90;70.60
43995;DHT22;51687;52.160;5.298;2023-12-20T03:38:15;10.90;70.80
43995;DHT22;51687;52.160;5.298;2023-12-20T03:40:42;10.90;70.70
43995;DHT22;51687;52.160;5.298;2023-12-20T03:43:09;10.90;70.50
43995;DHT22;51687;52.160;5.298;2023-12-20T03:45:35;10.90;70.80
43995;DHT22;51687;52.160;5.298;2023-12-20T03:48:02;10.90;70.30
43995;DHT22;51687;52.160;5.298;2023-12-20T03:50:29;10.90;70.30
43995;DHT22;51687;52.160;5.298;2023-12-20T03:52:56;10.80;69.70
43995;DHT22;51687;52.160;5.298;2023-12-20T03:55:23;10.70;70.50
43995;DHT22;51687;52.160;5.298;2023-12-20T03:57:50;10.70;70.30
43995;DHT22;51687;52.160;5.298;2023-12-20T04:00:17;10.80;71.00
43995;DHT22;51687;52.160;5.298;2023-12-20T04:02:44;10.80;71.20
43995;DHT22;51687;52.160;5.298;2023-12-20T04:05:11;10.80;70.30
43995;DHT22;51687;52.160;5.298;2023-12-20T04:07:38;10.80;70.70
43995;DHT22;51687;52.160;5.298;2023-12-20T04:10:05;10.80;70.50
43995;DHT22;51687;52.160;5.298;2023-12-20T04:12:32;10.80;70.30
43995;DHT22;51687;52.160;5.298;2023-12-20T04:15:00;10.70;70.00
43995;DHT22;51687;52.160;5.298;2023-12-20T04:17:26;10.70;70.30
43995;DHT22;51687;52.160;5.298;2023-12-20T04:19:53;10.70;70.80
43995;DHT22;51687;52.160;5.298;2023-12-20T04:22:20;10.60;70.50
43995;DHT22;51687;52.160;5.298;2023-12-20T04:24:47;10.70;71.00
43995;DHT22;51687;52.160;5.298;2023-12-20T05:01:34;10.70;71.00
43995;DHT22;51687;52.160;5.298;2023-12-20T05:04:01;11.30;69.80
43995;DHT22;51687;52.160;5.298;2023-12-20T05:06:28;11.20;69.10
43995;DHT22;51687;52.160;5.298;2023-12-20T05:08:55;11.20;69.10
43995;DHT22;51687;52.160;5.298;2023-12-20T05:11:21;11.10;69.60
43995;DHT22;51687;52.160;5.298;2023-12-20T05:13:48;11.10;69.30
43995;DHT22;51687;52.160;5.298;2023-12-20T05:16:16;11.00;69.60
43995;DHT22;51687;52.160;5.298;2023-12-20T05:18:46;11.00;69.70
43995;DHT22;51687;52.160;5.298;2023-12-20T05:21:13;11.00;69.70
43995;DHT22;51687;52.160;5.298;2023-12-20T05:23:40;11.00;69.60
43995;DHT22;51687;52.160;5.298;2023-12-20T05:26:10;10.90;69.80
43995;DHT22;51687;52.160;5.298;2023-12-20T05:28:36;10.90;70.00
43995;DHT22;51687;52.160;5.298;2023-12-20T05:31:03;10.90;69.70
43995;DHT22;51687;52.160;5.298;2023-12-20T05:33:30;10.90;69.60
43995;DHT22;51687;52.160;5.298;2023-12-20T05:40:51;10.90;69.50
43995;DHT22;51687;52.160;5.298;2023-12-20T05:43:18;10.90;69.80
43995;DHT22;51687;52.160;5.298;2023-12-20T05:45:46;11.00;70.00
43995;DHT22;51687;52.160;5.298;2023-12-20T05:48:13;11.00;69.40
43995;DHT22;51687;52.160;5.298;2023-12-20T05:50:40;11.00;69.50
43995;DHT22;51687;52.160;5.298;2023-12-20T05:53:07;11.00;69.30
43995;DHT22;51687;52.160;5.298;2023-12-20T05:55:33;11.00;70.60
43995;DHT22;51687;52.160;5.298;2023-12-20T05:58:00;11.00;69.80
43995;DHT22;51687;52.160;5.298;2023-12-20T06:00:28;11.00;69.10
43995;DHT22;51687;52.160;5.298;2023-12-20T06:02:55;11.00;69.50
43995;DHT22;51687;52.160;5.298;2023-12-20T06:05:21;11.00;68.80
43995;DHT22;51687;52.160;5.298;2023-12-20T06:07:48;11.00;68.90
43995;DHT22;51687;52.160;5.298;2023-12-20T06:10:17;10.90;69.50
43995;DHT22;51687;52.160;5.298;2023-12-20T06:12:44;10.90;69.80
43995;DHT22;51687;52.160;5.298;2023-12-20T06:15:11;10.80;69.40
43995;DHT22;51687;52.160;5.298;2023-12-20T06:17:38;10.90;70.10
43995;DHT22;51687;52.160;5.298;2023-12-20T06:20:06;10.90;69.90
43995;DHT22;51687;52.160;5.298;2023-12-20T06:22:35;10.90;69.70
43995;DHT22;51687;52.160;5.298;2023-12-20T06:25:02;10.90;70.00
43995;DHT22;51687;52.160;5.298;2023-12-20T06:27:29;10.90;70.70
43995;DHT22;51687;52.160;5.298;2023-12-20T06:29:57;10.90;69.50
43995;DHT22;51687;52.160;5.298;2023-12-20T06:32:23;10.90;69.40
43995;DHT22;51687;52.160;5.298;2023-12-20T06:34:50;10.90;70.10
43995;DHT22;51687;52.160;5.298;2023-12-20T06:37:17;10.90;69.80
43995;DHT22;51687;52.160;5.298;2023-12-20T06:39:44;10.90;69.30
43995;DHT22;51687;52.160;5.298;2023-12-20T06:42:12;10.90;69.40
43995;DHT22;51687;52.160;5.298;2023-12-20T06:44:39;10.80;69.80
43995;DHT22;51687;52.160;5.298;2023-12-20T06:47:06;10.80;70.10
43995;DHT22;51687;52.160;5.298;2023-12-20T06:49:33;10.80;70.10
43995;DHT22;51687;52.160;5.298;2023-12-20T06:52:00;10.70;70.30
43995;DHT22;51687;52.160;5.298;2023-12-20T06:54:27;10.70;70.60
43995;DHT22;51687;52.160;5.298;2023-12-20T06:56:53;10.70;70.50
43995;DHT22;51687;52.160;5.298;2023-12-20T06:59:20;10.60;70.60
43995;DHT22;51687;52.160;5.298;2023-12-20T07:01:50;10.60;70.90
43995;DHT22;51687;52.160;5.298;2023-12-20T07:04:17;10.60;70.90
43995;DHT22;51687;52.160;5.298;2023-12-20T07:06:48;10.60;71.10
43995;DHT22;51687;52.160;5.298;2023-12-20T07:09:18;10.60;71.00
43995;DHT22;51687;52.160;5.298;2023-12-20T07:11:45;10.70;71.20
43995;DHT22;51687;52.160;5.298;2023-12-20T07:14:12;10.70;71.00
43995;DHT22;51687;52.160;5.298;2023-12-20T07:16:38;10.70;70.90
43995;DHT22;51687;52.160;5.298;2023-12-20T07:19:05;10.70;70.70
43995;DHT22;51687;52.160;5.298;2023-12-20T07:21:32;10.70;70.70
43995;DHT22;51687;52.160;5.298;2023-12-20T07:23:59;10.70;70.60
43995;DHT22;51687;52.160;5.298;2023-12-20T07:26:26;10.70;70.60
43995;DHT22;51687;52.160;5.298;2023-12-20T07:28:53;10.70;70.80
43995;DHT22;51687;52.160;5.298;2023-12-20T07:31:19;10.70;70.50
43995;DHT22;51687;52.160;5.298;2023-12-20T07:33:46;10.70;70.50
43995;DHT22;51687;52.160;5.298;2023-12-20T07:36:13;10.70;70.40
43995;DHT22;51687;52.160;5.298;2023-12-20T07:38:40;10.70;70.40
43995;DHT22;51687;52.160;5.298;2023-12-20T07:41:10;10.70;70.40
43995;DHT22;51687;52.160;5.298;2023-12-20T07:43:37;10.70;71.20
43995;DHT22;51687;52.160;5.298;2023-12-20T07:46:06;10.70;70.80
43995;DHT22;51687;52.160;5.298;2023-12-20T07:48:34;10.80;70.70
43995;DHT22;51687;52.160;5.298;2023-12-20T07:51:02;10.80;70.80
43995;DHT22;51687;52.160;5.298;2023-12-20T07:53:28;10.80;70.80
43995;DHT22;51687;52.160;5.298;2023-12-20T07:55:55;10.80;70.60
43995;DHT22;51687;52.160;5.298;2023-12-20T07:58:22;10.80;70.40
43995;DHT22;51687;52.160;5.298;2023-12-20T08:01:01;10.80;70.60
43995;DHT22;51687;52.160;5.298;2023-12-20T08:03:28;10.80;70.80
43995;DHT22;51687;52.160;5.298;2023-12-20T08:05:55;10.80;70.80
43995;DHT22;51687;52.160;5.298;2023-12-20T08:08:23;10.80;70.80
43995;DHT22;51687;52.160;5.298;2023-12-20T08:10:49;10.80;71.30
43995;DHT22;51687;52.160;5.298;2023-12-20T08:13:16;10.80;71.40
43995;DHT22;51687;52.160;5.298;2023-12-20T08:15:43;10.80;71.00
43995;DHT22;51687;52.160;5.298;2023-12-20T08:18:10;10.90;70.80
43995;DHT22;51687;52.160;5.298;2023-12-20T08:20:37;10.90;70.40
43995;DHT22;51687;52.160;5.298;2023-12-20T08:23:06;10.80;71.60
43995;DHT22;51687;52.160;5.298;2023-12-20T08:25:33;10.90;70.90
43995;DHT22;51687;52.160;5.298;2023-12-20T08:28:02;10.80;70.80
43995;DHT22;51687;52.160;5.298;2023-12-20T08:30:29;10.90;71.10
43995;DHT22;51687;52.160;5.298;2023-12-20T08:33:00;10.90;70.90
43995;DHT22;51687;52.160;5.298;2023-12-20T08:35:27;10.90;70.70
43995;DHT22;51687;52.160;5.298;2023-12-20T08:37:53;10.90;70.90
43995;DHT22;51687;52.160;5.298;2023-12-20T08:40:20;10.90;70.70
43995;DHT22;51687;52.160;5.298;2023-12-20T08:42:47;10.90;70.60
43995;DHT22;51687;52.160;5.298;2023-12-20T08:45:14;10.90;70.80
43995;DHT22;51687;52.160;5.298;2023-12-20T08:47:41;10.80;70.80
43995;DHT22;51687;52.160;5.298;2023-12-20T08:50:08;10.80;71.00
43995;DHT22;51687;52.160;5.298;2023-12-20T08:52:35;10.80;71.10
43995;DHT22;51687;52.160;5.298;2023-12-20T08:55:01;10.80;71.70
43995;DHT22;51687;52.160;5.298;2023-12-20T08:57:28;10.80;71.90
43995;DHT22;51687;52.160;5.298;2023-12-20T08:59:55;10.80;72.20
43995;DHT22;51687;52.160;5.298;2023-12-20T09:02:22;10.80;72.60
43995;DHT22;51687;52.160;5.298;2023-12-20T09:04:49;10.90;72.70
43995;DHT22;51687;52.160;5.298;2023-12-20T09:07:23;11.00;72.80
43995;DHT22;51687;52.160;5.298;2023-12-20T09:09:51;11.00;73.00
43995;DHT22;51687;52.160;5.298;2023-12-20T09:12:18;11.00;72.90
43995;DHT22;51687;52.160;5.298;2023-12-20T09:14:47;11.00;73.00
43995;DHT22;51687;52.160;5.298;2023-12-20T09:17:14;11.10;73.10
43995;DHT22;51687;52.160;5.298;2023-12-20T09:19:41;11.00;72.80
43995;DHT22;51687;52.160;5.298;2023-12-20T09:22:08;11.00;72.90
43995;DHT22;51687;52.160;5.298;2023-12-20T09:24:35;11.00;73.00
43995;DHT22;51687;52.160;5.298;2023-12-20T09:27:02;10.90;72.80
43995;DHT22;51687;52.160;5.298;2023-12-20T09:29:29;10.90;73.00
43995;DHT22;51687;52.160;5.298;2023-12-20T09:31:56;10.90;72.80
43995;DHT22;51687;52.160;5.298;2023-12-20T09:34:24;10.90;72.80
43995;DHT22;51687;52.160;5.298;2023-12-20T09:36:52;11.00;73.20
43995;DHT22;51687;52.160;5.298;2023-12-20T09:39:21;11.00;72.60
43995;DHT22;51687;52.160;5.298;2023-12-20T09:42:02;11.00;72.30
43995;DHT22;51687;52.160;5.298;2023-12-20T09:44:29;11.10;72.20
43995;DHT22;51687;52.160;5.298;2023-12-20T09:46:57;11.10;72.30
43995;DHT22;51687;52.160;5.298;2023-12-20T09:49:25;11.10;72.00
43995;DHT22;51687;52.160;5.298;2023-12-20T09:51:54;11.10;72.50
43995;DHT22;51687;52.160;5.298;2023-12-20T09:54:21;11.20;72.30
43995;DHT22;51687;52.160;5.298;2023-12-20T09:56:49;11.20;72.40
43995;DHT22;51687;52.160;5.298;2023-12-20T09:59:16;11.20;71.50
43995;DHT22;51687;52.160;5.298;2023-12-20T10:01:43;11.20;71.20
43995;DHT22;51687;52.160;5.298;2023-12-20T10:04:12;11.10;71.20
43995;DHT22;51687;52.160;5.298;2023-12-20T10:06:56;11.10;71.50
43995;DHT22;51687;52.160;5.298;2023-12-20T10:09:24;11.10;71.70
43995;DHT22;51687;52.160;5.298;2023-12-20T10:11:54;11.10;71.70
43995;DHT22;51687;52.160;5.298;2023-12-20T10:14:21;11.20;71.60
43995;DHT22;51687;52.160;5.298;2023-12-20T10:16:49;11.20;71.50
43995;DHT22;51687;52.160;5.298;2023-12-20T10:19:19;11.20;71.60
43995;DHT22;51687;52.160;5.298;2023-12-20T10:21:46;11.20;71.50
43995;DHT22;51687;52.160;5.298;2023-12-20T10:24:19;11.30;72.10
43995;DHT22;51687;52.160;5.298;2023-12-20T10:26:46;11.40;71.30
43995;DHT22;51687;52.160;5.298;2023-12-20T10:29:14;11.40;71.00
43995;DHT22;51687;52.160;5.298;2023-12-20T10:31:41;11.40;71.00
43995;DHT22;51687;52.160;5.298;2023-12-20T10:34:09;11.40;71.50
43995;DHT22;51687;52.160;5.298;2023-12-20T10:36:37;11.50;71.10
43995;DHT22;51687;52.160;5.298;2023-12-20T10:39:06;11.50;71.20
43995;DHT22;51687;52.160;5.298;2023-12-20T10:41:34;11.50;70.90
43995;DHT22;51687;52.160;5.298;2023-12-20T10:44:08;11.60;70.40
43995;DHT22;51687;52.160;5.298;2023-12-20T10:46:37;11.60;70.80
43995;DHT22;51687;52.160;5.298;2023-12-20T10:49:05;11.60;69.90
43995;DHT22;51687;52.160;5.298;2023-12-20T10:51:34;11.60;70.40
43995;DHT22;51687;52.160;5.298;2023-12-20T10:54:01;11.60;70.70
43995;DHT22;51687;52.160;5.298;2023-12-20T10:56:32;11.60;70.40
43995;DHT22;51687;52.160;5.298;2023-12-20T10:59:02;11.60;69.70
43995;DHT22;51687;52.160;5.298;2023-12-20T11:01:30;11.60;69.90
43995;DHT22;51687;52.160;5.298;2023-12-20T11:03:59;11.60;70.10
43995;DHT22;51687;52.160;5.298;2023-12-20T11:06:36;11.60;70.10
43995;DHT22;51687;52.160;5.298;2023-12-20T11:09:31;11.60;70.30
43995;DHT22;51687;52.160;5.298;2023-12-20T11:12:13;11.60;70.20
43995;DHT22;51687;52.160;5.298;2023-12-20T11:14:46;11.60;70.40
43995;DHT22;51687;52.160;5.298;2023-12-20T11:17:14;11.70;71.00
43995;DHT22;51687;52.160;5.298;2023-12-20T11:22:27;11.80;69.80
43995;DHT22;51687;52.160;5.298;2023-12-20T11:25:05;11.90;69.60
43995;DHT22;51687;52.160;5.298;2023-12-20T11:27:33;11.90;69.50
43995;DHT22;51687;52.160;5.298;2023-12-20T11:30:03;11.90;68.90
43995;DHT22;51687;52.160;5.298;2023-12-20T11:32:37;11.80;69.00
43995;DHT22;51687;52.160;5.298;2023-12-20T11:37:38;11.80;69.70
43995;DHT22;51687;52.160;5.298;2023-12-20T11:40:15;11.90;68.70
43995;DHT22;51687;52.160;5.298;2023-12-20T11:42:44;11.80;69.00
43995;DHT22;51687;52.160;5.298;2023-12-20T11:45:14;11.80;69.10
43995;DHT22;51687;52.160;5.298;2023-12-20T11:47:51;11.90;69.60
43995;DHT22;51687;52.160;5.298;2023-12-20T11:50:21;11.90;69.20
43995;DHT22;51687;52.160;5.298;2023-12-20T11:52:49;11.90;68.60
43995;DHT22;51687;52.160;5.298;2023-12-20T11:55:16;12.00;69.10
43995;DHT22;51687;52.160;5.298;2023-12-20T11:57:44;11.90;68.50
43995;DHT22;51687;52.160;5.298;2023-12-20T12:00:13;12.00;68.50
43995;DHT22;51687;52.160;5.298;2023-12-20T12:02:40;12.00;69.30
43995;DHT22;51687;52.160;5.298;2023-12-20T12:05:08;12.00;68.00
43995;DHT22;51687;52.160;5.298;2023-12-20T12:07:35;12.00;68.40
43995;DHT22;51687;52.160;5.298;2023-12-20T12:10:02;12.00;68.40
43995;DHT22;51687;52.160;5.298;2023-12-20T12:12:30;12.10;68.20
43995;DHT22;51687;52.160;5.298;2023-12-20T12:14:57;12.00;68.30
43995;DHT22;51687;52.160;5.298;2023-12-20T12:17:24;12.10;68.20
43995;DHT22;51687;52.160;5.298;2023-12-20T12:20:05;12.10;68.70
43995;DHT22;51687;52.160;5.298;2023-12-20T12:22:32;12.10;68.40
43995;DHT22;51687;52.160;5.298;2023-12-20T12:25:09;12.10;67.90
43995;DHT22;51687;52.160;5.298;2023-12-20T12:27:39;12.10;68.00
43995;DHT22;51687;52.160;5.298;2023-12-20T12:30:06;12.10;68.10
43995;DHT22;51687;52.160;5.298;2023-12-20T12:32:36;12.10;68.30
43995;DHT22;51687;52.160;5.298;2023-12-20T12:35:04;12.10;67.90
43995;DHT22;51687;52.160;5.298;2023-12-20T12:37:38;12.10;68.00
43995;DHT22;51687;52.160;5.298;2023-12-20T12:40:16;12.10;68.80
43995;DHT22;51687;52.160;5.298;2023-12-20T12:42:44;12.10;68.90
43995;DHT22;51687;52.160;5.298;2023-12-20T12:45:11;12.10;68.80
43995;DHT22;51687;52.160;5.298;2023-12-20T12:47:39;12.00;69.10
43995;DHT22;51687;52.160;5.298;2023-12-20T12:50:06;12.10;69.50
43995;DHT22;51687;52.160;5.298;2023-12-20T12:52:33;12.00;68.90
43995;DHT22;51687;52.160;5.298;2023-12-20T12:55:02;12.00;69.60
43995;DHT22;51687;52.160;5.298;2023-12-20T12:57:30;12.00;69.00
43995;DHT22;51687;52.160;5.298;2023-12-20T12:59:57;12.00;70.00
43995;DHT22;51687;52.160;5.298;2023-12-20T13:02:25;11.90;69.10
43995;DHT22;51687;52.160;5.298;2023-12-20T13:04:52;12.00;68.90
43995;DHT22;51687;52.160;5.298;2023-12-20T13:07:19;12.00;69.00
43995;DHT22;51687;52.160;5.298;2023-12-20T13:09:45;12.00;69.10
43995;DHT22;51687;52.160;5.298;2023-12-20T13:12:13;12.00;68.80
43995;DHT22;51687;52.160;5.298;2023-12-20T13:14:39;12.00;68.70
43995;DHT22;51687;52.160;5.298;2023-12-20T13:17:07;12.00;68.80
43995;DHT22;51687;52.160;5.298;2023-12-20T13:19:35;12.00;68.90
43995;DHT22;51687;52.160;5.298;2023-12-20T13:22:03;12.00;69.00
43995;DHT22;51687;52.160;5.298;2023-12-20T13:24:30;12.00;69.00
43995;DHT22;51687;52.160;5.298;2023-12-20T13:26:57;12.10;68.90
43995;DHT22;51687;52.160;5.298;2023-12-20T13:29:24;12.00;68.90
43995;DHT22;51687;52.160;5.298;2023-12-20T13:31:53;12.00;69.20
43995;DHT22;51687;52.160;5.298;2023-12-20T13:34:20;12.00;69.10
43995;DHT22;51687;52.160;5.298;2023-12-20T13:36:48;12.00;69.00
43995;DHT22;51687;52.160;5.298;2023-12-20T13:39:17;12.00;69.00
43995;DHT22;51687;52.160;5.298;2023-12-20T13:41:44;12.00;69.10
43995;DHT22;51687;52.160;5.298;2023-12-20T13:44:11;12.10;68.70
43995;DHT22;51687;52.160;5.298;2023-12-20T13:46:40;12.00;68.60
43995;DHT22;51687;52.160;5.298;2023-12-20T13:49:06;12.00;68.50
43995;DHT22;51687;52.160;5.298;2023-12-20T13:51:33;12.00;68.90
43995;DHT22;51687;52.160;5.298;2023-12-20T13:54:00;12.10;69.00
43995;DHT22;51687;52.160;5.298;2023-12-20T13:56:27;12.10;68.50
43995;DHT22;51687;52.160;5.298;2023-12-20T13:58:54;12.10;68.50
43995;DHT22;51687;52.160;5.298;2023-12-20T14:01:21;12.10;68.50
43995;DHT22;51687;52.160;5.298;2023-12-20T14:03:48;12.10;68.10
43995;DHT22;51687;52.160;5.298;2023-12-20T14:06:14;12.10;68.00
43995;DHT22;51687;52.160;5.298;2023-12-20T14:08:43;12.00;67.90
43995;DHT22;51687;52.160;5.298;2023-12-20T14:11:09;12.00;68.00
43995;DHT22;51687;52.160;5.298;2023-12-20T14:13:37;11.90;68.20
43995;DHT22;51687;52.160;5.298;2023-12-20T14:16:04;12.00;68.50
43995;DHT22;51687;52.160;5.298;2023-12-20T14:18:31;12.00;67.90
43995;DHT22;51687;52.160;5.298;2023-12-20T14:20:57;11.90;67.90
43995;DHT22;51687;52.160;5.298;2023-12-20T14:23:24;11.90;67.90
43995;DHT22;51687;52.160;5.298;2023-12-20T14:25:51;11.90;68.00
43995;DHT22;51687;52.160;5.298;2023-12-20T14:28:19;11.90;68.40
43995;DHT22;51687;52.160;5.298;2023-12-20T14:30:46;12.00;68.20
43995;DHT22;51687;52.160;5.298;2023-12-20T14:33:13;11.90;68.20
43995;DHT22;51687;52.160;5.298;2023-12-20T14:35:40;12.00;68.30
43995;DHT22;51687;52.160;5.298;2023-12-20T14:38:11;11.90;68.50
43995;DHT22;51687;52.160;5.298;2023-12-20T14:40:41;12.00;68.50
43995;DHT22;51687;52.160;5.298;2023-12-20T14:43:08;11.90;68.60
43995;DHT22;51687;52.160;5.298;2023-12-20T14:45:35;11.90;68.90
43995;DHT22;51687;52.160;5.298;2023-12-20T14:48:01;11.90;69.00
43995;DHT22;51687;52.160;5.298;2023-12-20T14:50:28;11.80;69.20
43995;DHT22;51687;52.160;5.298;2023-12-20T14:52:55;11.80;69.30
43995;DHT22;51687;52.160;5.298;2023-12-20T14:55:22;11.80;69.50
43995;DHT22;51687;52.160;5.298;2023-12-20T14:57:49;11.80;69.60
43995;DHT22;51687;52.160;5.298;2023-12-20T15:00:16;11.80;69.80
43995;DHT22;51687;52.160;5.298;2023-12-20T15:02:44;11.70;70.10
43995;DHT22;51687;52.160;5.298;2023-12-20T15:05:11;11.80;70.50
43995;DHT22;51687;52.160;5.298;2023-12-20T15:07:38;11.90;70.50
43995;DHT22;51687;52.160;5.298;2023-12-20T15:10:05;11.90;70.20
43995;DHT22;51687;52.160;5.298;2023-12-20T15:12:31;11.90;70.10
43995;DHT22;51687;52.160;5.298;2023-12-20T15:15:00;11.90;69.90
43995;DHT22;51687;52.160;5.298;2023-12-20T15:17:27;11.90;69.80
43995;DHT22;51687;52.160;5.298;2023-12-20T15:19:54;11.90;70.00
43995;DHT22;51687;52.160;5.298;2023-12-20T15:22:22;11.90;70.20
43995;DHT22;51687;52.160;5.298;2023-12-20T15:24:49;11.90;70.30
43995;DHT22;51687;52.160;5.298;2023-12-20T15:27:17;11.90;70.50
43995;DHT22;51687;52.160;5.298;2023-12-20T15:29:44;11.80;70.60
43995;DHT22;51687;52.160;5.298;2023-12-20T15:32:11;11.80;70.60
43995;DHT22;51687;52.160;5.298;2023-12-20T15:34:37;11.80;71.10
43995;DHT22;51687;52.160;5.298;2023-12-20T15:37:04;11.80;71.20
43995;DHT22;51687;52.160;5.298;2023-12-20T15:39:31;11.80;71.30
43995;DHT22;51687;52.160;5.298;2023-12-20T15:41:58;11.70;71.40
43995;DHT22;51687;52.160;5.298;2023-12-20T15:44:25;11.70;71.90
43995;DHT22;51687;52.160;5.298;2023-12-20T15:46:51;11.70;72.10
43995;DHT22;51687;52.160;5.298;2023-12-20T15:49:19;11.80;72.30
43995;DHT22;51687;52.160;5.298;2023-12-20T15:51:46;11.70;72.30
43995;DHT22;51687;52.160;5.298;2023-12-20T15:54:12;11.70;72.60
43995;DHT22;51687;52.160;5.298;2023-12-20T15:56:39;11.70;73.10
43995;DHT22;51687;52.160;5.298;2023-12-20T15:59:07;11.80;73.10
43995;DHT22;51687;52.160;5.298;2023-12-20T16:01:36;11.70;73.00
43995;DHT22;51687;52.160;5.298;2023-12-20T16:04:03;11.70;73.00
43995;DHT22;51687;52.160;5.298;2023-12-20T16:06:30;11.70;73.20
43995;DHT22;51687;52.160;5.298;2023-12-20T16:08:56;11.70;73.30
43995;DHT22;51687;52.160;5.298;2023-12-20T16:11:27;11.60;73.40
43995;DHT22;51687;52.160;5.298;2023-12-20T16:13:54;11.70;73.60
43995;DHT22;51687;52.160;5.298;2023-12-20T16:16:21;11.70;73.50
43995;DHT22;51687;52.160;5.298;2023-12-20T16:18:47;11.70;73.80
43995;DHT22;51687;52.160;5.298;2023-12-20T16:21:14;11.70;73.20
43995;DHT22;51687;52.160;5.298;2023-12-20T16:23:41;11.70;73.30
43995;DHT22;51687;52.160;5.298;2023-12-20T16:26:08;11.70;73.30
43995;DHT22;51687;52.160;5.298;2023-12-20T16:28:35;11.70;73.10